createdAt,value
2019-03-09T00:00:46.022Z,98290.12
2019-03-09T00:03:16.520Z,98293.02
2019-03-09T00:05:46.919Z,98292.35
2019-03-09T00:08:17.439Z,98293.27
2019-03-09T00:10:47.956Z,98298.74
2019-03-09T00:13:18.530Z,98301.98
2019-03-09T00:15:48.936Z,98302.95
2019-03-09T00:18:19.359Z,98302.83
2019-03-09T00:20:49.801Z,98307.47
2019-03-09T00:23:45.278Z,98310.73
2019-03-09T00:26:34.420Z,98301.70
2019-03-09T00:29:12.887Z,98298.05
2019-03-09T00:31:48.294Z,98295.00
2019-03-09T00:34:18.658Z,98290.77
2019-03-09T00:36:49.051Z,98289.45
2019-03-09T00:39:19.521Z,98291.01
2019-03-09T00:41:50.142Z,98288.54
2019-03-09T00:44:20.505Z,98287.72
2019-03-09T00:46:51.014Z,98295.69
2019-03-09T00:49:21.519Z,98295.59
2019-03-09T00:51:51.987Z,98290.28
2019-03-09T00:54:22.362Z,98291.92
2019-03-09T00:56:53.155Z,98284.69
2019-03-09T00:59:23.532Z,98293.48
2019-03-09T01:01:53.968Z,98290.03
2019-03-09T01:04:24.400Z,98292.35
2019-03-09T01:06:54.782Z,98290.01
2019-03-09T01:09:25.342Z,98286.41
2019-03-09T01:11:55.788Z,98291.50
2019-03-09T01:14:26.379Z,98286.64
2019-03-09T01:16:56.873Z,98290.09
2019-03-09T01:19:27.373Z,98285.66
2019-03-09T01:21:57.815Z,98282.60
2019-03-09T01:24:28.203Z,98286.33
2019-03-09T01:26:58.760Z,98286.33
2019-03-09T01:29:29.325Z,98273.39
2019-03-09T01:31:59.718Z,98275.92
2019-03-09T01:34:30.545Z,98269.00
2019-03-09T01:37:00.964Z,98270.01
2019-03-09T01:39:31.672Z,98272.37
2019-03-09T01:42:02.125Z,98263.52
2019-03-09T01:44:32.544Z,98265.33
2019-03-09T01:47:03.162Z,98276.84
2019-03-09T01:49:33.593Z,98280.61
2019-03-09T01:52:04.121Z,98285.13
2019-03-09T01:54:34.798Z,98281.45
2019-03-09T01:57:05.192Z,98285.64
2019-03-09T01:59:35.688Z,98279.55
2019-03-09T02:02:06.162Z,98282.81
2019-03-09T02:04:36.574Z,98278.66
2019-03-09T02:07:07.010Z,98280.72
2019-03-09T02:09:37.382Z,98285.90
2019-03-09T02:12:07.903Z,98282.02
2019-03-09T02:14:38.360Z,98284.59
2019-03-09T02:17:08.706Z,98287.89
2019-03-09T02:19:39.152Z,98285.39
2019-03-09T02:22:09.744Z,98279.66
2019-03-09T02:24:40.182Z,98285.77
2019-03-09T02:27:10.914Z,98285.91
2019-03-09T02:29:41.422Z,98291.27
2019-03-09T02:32:11.771Z,98292.66
2019-03-09T02:34:42.206Z,98298.06
2019-03-09T02:37:12.672Z,98293.92
2019-03-09T02:39:47.981Z,98301.83
2019-03-09T02:42:18.594Z,98297.98
2019-03-09T02:44:48.954Z,98294.58
2019-03-09T02:47:19.441Z,98294.55
2019-03-09T02:49:49.919Z,98292.08
2019-03-09T02:52:20.276Z,98296.45
2019-03-09T02:54:50.564Z,98288.19
2019-03-09T02:57:20.974Z,98290.23
2019-03-09T02:59:51.401Z,98296.38
2019-03-09T03:02:28.545Z,98296.45
2019-03-09T03:04:59.082Z,98301.20
2019-03-09T03:07:29.530Z,98305.21
2019-03-09T03:09:59.979Z,98304.59
2019-03-09T03:12:30.396Z,98303.83
2019-03-09T03:15:01.029Z,98303.89
2019-03-09T03:17:31.453Z,98309.05
2019-03-09T03:20:01.823Z,98311.31
2019-03-09T03:22:32.362Z,98312.57
2019-03-09T03:25:02.985Z,98316.70
2019-03-09T03:27:33.618Z,98313.92
2019-03-09T03:30:03.952Z,98315.63
2019-03-09T03:32:36.621Z,98321.02
2019-03-09T03:35:07.977Z,98320.45
2019-03-09T03:37:38.535Z,98322.75
2019-03-09T03:40:09.436Z,98315.87
2019-03-09T03:42:40.138Z,98327.13
2019-03-09T03:45:11.105Z,98323.37
2019-03-09T03:47:41.671Z,98325.91
2019-03-09T03:50:12.575Z,98324.39
2019-03-09T03:52:43.051Z,98324.17
2019-03-09T03:55:14.062Z,98314.22
2019-03-09T03:57:44.506Z,98319.72
2019-03-09T04:00:15.298Z,98329.23
2019-03-09T04:02:45.836Z,98331.16
2019-03-09T04:05:16.557Z,98323.64
2019-03-09T04:07:47.314Z,98319.09
2019-03-09T04:10:18.037Z,98324.27
2019-03-09T04:12:48.966Z,98326.63
2019-03-09T04:15:19.504Z,98321.20
2019-03-09T04:17:49.926Z,98322.07
2019-03-09T04:20:23.309Z,98326.42
2019-03-09T04:22:53.853Z,98328.08
2019-03-09T04:25:24.473Z,98317.23
2019-03-09T04:27:55.192Z,98317.77
2019-03-09T04:30:25.746Z,98315.37
2019-03-09T04:32:57.580Z,98324.67
2019-03-09T04:35:28.230Z,98316.41
2019-03-09T04:37:58.740Z,98318.14
2019-03-09T04:40:29.379Z,98319.32
2019-03-09T04:43:00.080Z,98316.53
2019-03-09T04:45:30.700Z,98316.98
2019-03-09T04:48:01.216Z,98317.86
2019-03-09T04:50:31.847Z,98318.72
2019-03-09T04:53:02.438Z,98333.31
2019-03-09T04:55:32.841Z,98331.20
2019-03-09T04:58:03.439Z,98336.86
2019-03-09T05:00:33.817Z,98338.71
2019-03-09T05:03:04.310Z,98345.02
2019-03-09T05:05:34.720Z,98348.11
2019-03-09T05:08:34.665Z,98354.67
2019-03-09T05:11:09.543Z,98359.76
2019-03-09T05:14:12.917Z,98359.39
2019-03-09T05:16:43.591Z,98361.11
2019-03-09T05:19:14.066Z,98376.03
2019-03-09T05:21:44.711Z,98376.69
2019-03-09T05:24:15.132Z,98382.11
2019-03-09T05:26:46.053Z,98382.24
2019-03-09T05:29:16.581Z,98388.84
2019-03-09T05:31:46.976Z,98397.16
2019-03-09T05:34:17.188Z,98394.38
2019-03-09T05:36:47.866Z,98390.31
2019-03-09T05:39:18.455Z,98398.34
2019-03-09T05:41:49.160Z,98390.38
2019-03-09T05:44:19.649Z,98394.66
2019-03-09T05:46:50.001Z,98398.91
2019-03-09T05:49:20.513Z,98406.03
2019-03-09T05:52:26.179Z,98398.63
2019-03-09T05:54:56.458Z,98399.31
2019-03-09T05:57:26.815Z,98395.73
2019-03-09T05:59:57.328Z,98391.48
2019-03-09T06:02:27.862Z,98396.52
2019-03-09T06:04:58.284Z,98403.52
2019-03-09T06:07:28.555Z,98405.97
2019-03-09T06:09:59.010Z,98407.41
2019-03-09T06:12:29.468Z,98401.41
2019-03-09T06:14:59.740Z,98414.16
2019-03-09T06:17:30.099Z,98415.53
2019-03-09T06:20:00.485Z,98422.78
2019-03-09T06:22:30.909Z,98418.14
2019-03-09T06:25:01.401Z,98424.91
2019-03-09T06:27:32.960Z,98422.41
2019-03-09T06:30:03.416Z,98427.28
2019-03-09T06:33:09.017Z,98426.81
2019-03-09T06:35:39.370Z,98431.37
2019-03-09T06:38:32.866Z,98427.96
2019-03-09T06:41:03.450Z,98424.92
2019-03-09T06:43:33.903Z,98425.49
2019-03-09T06:46:04.128Z,98419.17
2019-03-09T06:48:34.489Z,98421.22
2019-03-09T06:51:04.852Z,98438.90
2019-03-09T06:53:37.620Z,98442.56
2019-03-09T06:56:08.194Z,98450.78
2019-03-09T06:58:38.547Z,98450.70
2019-03-09T07:01:22.733Z,98451.86
2019-03-09T07:03:53.295Z,98448.66
2019-03-09T07:06:24.499Z,98450.84
2019-03-09T07:08:54.914Z,98450.31
2019-03-09T07:11:25.324Z,98459.03
2019-03-09T07:13:55.704Z,98463.33
2019-03-09T07:16:26.169Z,98451.11
2019-03-09T07:18:57.640Z,98451.58
2019-03-09T07:21:28.084Z,98453.54
2019-03-09T07:23:58.490Z,98450.67
2019-03-09T07:26:29.131Z,98454.52
2019-03-09T07:28:59.587Z,98459.11
2019-03-09T07:31:29.851Z,98460.70
2019-03-09T07:34:28.103Z,98474.61
2019-03-09T07:36:58.501Z,98473.97
2019-03-09T07:39:28.998Z,98474.63
2019-03-09T07:41:59.444Z,98473.56
2019-03-09T07:44:29.823Z,98470.69
2019-03-09T07:47:00.215Z,98472.16
2019-03-09T07:49:30.575Z,98473.86
2019-03-09T07:52:01.036Z,98465.17
2019-03-09T07:54:31.531Z,98466.33
2019-03-09T07:57:01.888Z,98468.02
2019-03-09T07:59:32.185Z,98459.69
2019-03-09T08:02:02.585Z,98446.10
2019-03-09T08:04:33.065Z,98456.80
2019-03-09T08:07:03.395Z,98449.41
2019-03-09T08:09:33.694Z,98437.42
2019-03-09T08:12:04.283Z,98440.39
2019-03-09T08:14:34.762Z,98439.22
2019-03-09T08:17:05.145Z,98438.73
2019-03-09T08:19:35.349Z,98446.05
2019-03-09T08:22:05.740Z,98445.22
2019-03-09T08:24:36.000Z,98442.39
2019-03-09T08:27:06.077Z,98438.85
2019-03-09T08:29:36.605Z,98449.81
2019-03-09T08:32:06.846Z,98453.31
2019-03-09T08:34:37.054Z,98460.42
2019-03-09T08:37:07.527Z,98457.19
2019-03-09T08:39:38.002Z,98460.59
2019-03-09T08:42:08.522Z,98453.85
2019-03-09T08:44:38.925Z,98449.21
2019-03-09T08:47:09.261Z,98452.50
2019-03-09T08:49:39.563Z,98459.30
2019-03-09T08:52:09.838Z,98457.93
2019-03-09T08:54:40.175Z,98451.47
2019-03-09T08:57:10.656Z,98460.97
2019-03-09T08:59:41.093Z,98456.82
2019-03-09T09:02:11.399Z,98453.92
2019-03-09T09:04:41.869Z,98455.19
2019-03-09T09:07:12.252Z,98458.68
2019-03-09T09:09:42.623Z,98455.09
2019-03-09T09:12:13.092Z,98445.83
2019-03-09T09:14:43.314Z,98450.27
2019-03-09T09:17:13.576Z,98444.95
2019-03-09T09:19:43.839Z,98445.23
2019-03-09T09:22:14.262Z,98443.59
2019-03-09T09:24:44.546Z,98436.28
2019-03-09T09:27:14.771Z,98450.05
2019-03-09T09:29:45.025Z,98443.02
2019-03-09T09:32:15.390Z,98440.56
2019-03-09T09:34:45.709Z,98437.11
2019-03-09T09:37:16.046Z,98438.97
2019-03-09T09:39:46.435Z,98428.28
2019-03-09T09:42:16.834Z,98441.45
2019-03-09T09:44:47.140Z,98439.77
2019-03-09T09:47:17.311Z,98435.52
2019-03-09T09:49:47.708Z,98436.98
2019-03-09T09:52:17.978Z,98424.97
2019-03-09T09:54:48.054Z,98418.39
2019-03-09T09:57:18.435Z,98424.74
2019-03-09T09:59:48.501Z,98426.89
2019-03-09T10:02:18.934Z,98433.92
2019-03-09T10:04:49.325Z,98426.91
2019-03-09T10:07:19.622Z,98429.44
2019-03-09T10:09:49.455Z,98418.93
2019-03-09T10:12:19.948Z,98416.75
2019-03-09T10:14:50.109Z,98412.88
2019-03-09T10:17:19.962Z,98407.48
2019-03-09T10:19:50.238Z,98395.47
2019-03-09T10:22:20.492Z,98395.23
2019-03-09T10:24:50.756Z,98386.77
2019-03-09T10:27:21.042Z,98389.83
2019-03-09T10:29:51.051Z,98384.55
2019-03-09T10:32:20.959Z,98383.24
2019-03-09T10:34:51.455Z,98371.52
2019-03-09T10:37:21.798Z,98370.94
2019-03-09T10:39:51.952Z,98371.01
2019-03-09T10:42:22.493Z,98365.89
2019-03-09T10:44:53.039Z,98352.63
2019-03-09T10:47:23.481Z,98342.59
2019-03-09T10:49:53.454Z,98344.79
2019-03-09T10:52:23.242Z,98339.23
2019-03-09T10:54:53.629Z,98336.38
2019-03-09T10:57:23.893Z,98333.16
2019-03-09T10:59:53.631Z,98325.66
2019-03-09T11:02:23.659Z,98325.08
2019-03-09T11:04:53.635Z,98310.78
2019-03-09T11:07:23.721Z,98300.92
2019-03-09T11:09:53.415Z,98302.97
2019-03-09T11:12:25.090Z,98299.97
2019-03-09T11:14:54.675Z,98302.18
2019-03-09T11:17:24.740Z,98292.67
2019-03-09T11:19:54.396Z,98291.28
2019-03-09T11:22:24.028Z,98285.03
2019-03-09T11:25:03.158Z,98284.90
2019-03-09T11:27:26.577Z,98265.26
2019-03-09T11:29:57.025Z,98273.81
2019-03-09T11:32:27.333Z,98273.72
2019-03-09T11:34:57.677Z,98262.12
2019-03-09T11:37:28.078Z,98257.56
2019-03-09T11:39:58.595Z,98252.27
2019-03-09T11:42:28.832Z,98253.84
2019-03-09T11:44:59.174Z,98246.61
2019-03-09T11:47:29.664Z,98243.01
2019-03-09T11:50:00.117Z,98230.37
2019-03-09T11:52:30.632Z,98232.87
2019-03-09T11:55:01.609Z,98222.99
2019-03-09T11:57:32.088Z,98217.16
2019-03-09T12:00:02.897Z,98221.84
2019-03-09T12:02:38.776Z,98215.09
2019-03-09T12:05:05.330Z,98213.84
2019-03-09T12:07:35.712Z,98205.46
2019-03-09T12:10:06.319Z,98205.58
2019-03-09T12:12:36.671Z,98203.37
2019-03-09T12:15:07.202Z,98189.88
2019-03-09T12:17:37.440Z,98190.39
2019-03-09T12:20:08.364Z,98180.65
2019-03-09T12:22:38.797Z,98177.69
2019-03-09T12:25:09.922Z,98169.69
2019-03-09T12:27:40.183Z,98163.72
2019-03-09T12:30:12.445Z,98154.09
2019-03-09T12:32:42.880Z,98147.78
2019-03-09T12:35:13.329Z,98149.08
2019-03-09T12:37:43.708Z,98148.50
2019-03-09T12:40:15.692Z,98147.26
2019-03-09T12:42:46.210Z,98144.83
2019-03-09T12:45:17.043Z,98141.52
2019-03-09T12:47:47.391Z,98138.36
2019-03-09T12:50:18.530Z,98125.20
2019-03-09T12:52:48.928Z,98123.41
2019-03-09T12:55:19.228Z,98121.62
2019-03-09T12:57:49.592Z,98129.12
2019-03-09T13:00:20.045Z,98125.30
2019-03-09T13:02:50.739Z,98125.35
2019-03-09T13:05:21.159Z,98126.19
2019-03-09T13:07:51.091Z,98123.34
2019-03-09T13:10:21.678Z,98123.33
2019-03-09T13:12:51.963Z,98120.88
2019-03-09T13:15:22.339Z,98112.40
2019-03-09T13:17:52.893Z,98104.53
2019-03-09T13:20:23.323Z,98112.85
2019-03-09T13:22:53.348Z,98103.33
2019-03-09T13:25:23.556Z,98104.50
2019-03-09T13:27:53.996Z,98104.95
2019-03-09T13:30:24.476Z,98103.25
2019-03-09T13:32:54.861Z,98105.70
2019-03-09T13:35:25.243Z,98101.77
2019-03-09T13:37:55.531Z,98096.70
2019-03-09T13:40:25.998Z,98106.30
2019-03-09T13:42:56.137Z,98107.27
2019-03-09T13:45:26.514Z,98103.49
2019-03-09T13:47:56.798Z,98107.41
2019-03-09T13:50:26.840Z,98116.10
2019-03-09T13:52:57.311Z,98113.06
2019-03-09T13:55:27.453Z,98111.47
2019-03-09T13:57:57.508Z,98107.88
2019-03-09T14:00:27.967Z,98108.41
2019-03-09T14:02:58.422Z,98106.19
2019-03-09T14:05:28.861Z,98102.23
2019-03-09T14:07:59.189Z,98095.59
2019-03-09T14:10:29.524Z,98100.50
2019-03-09T14:12:59.945Z,98097.88
2019-03-09T14:15:30.466Z,98095.61
2019-03-09T14:18:00.703Z,98091.67
2019-03-09T14:20:31.003Z,98091.59
2019-03-09T14:23:01.513Z,98086.70
2019-03-09T14:25:31.868Z,98083.06
2019-03-09T14:28:02.100Z,98079.27
2019-03-09T14:30:32.517Z,98075.54
2019-03-09T14:33:02.762Z,98073.10
2019-03-09T14:35:32.983Z,98066.55
2019-03-09T14:38:03.395Z,98059.20
2019-03-09T14:40:33.719Z,98053.98
2019-03-09T14:43:04.132Z,98054.20
2019-03-09T14:45:34.438Z,98058.63
2019-03-09T14:48:04.895Z,98054.79
2019-03-09T14:50:35.236Z,98050.87
2019-03-09T14:53:05.511Z,98067.20
2019-03-09T14:55:35.926Z,98067.28
2019-03-09T14:58:06.304Z,98064.22
2019-03-09T15:00:36.792Z,98067.05
2019-03-09T15:03:07.469Z,98066.03
2019-03-09T15:05:37.766Z,98067.80
2019-03-09T15:08:08.247Z,98072.23
2019-03-09T15:10:38.661Z,98074.73
2019-03-09T15:13:09.186Z,98072.33
2019-03-09T15:15:39.631Z,98080.30
2019-03-09T15:18:09.938Z,98087.27
2019-03-09T15:20:40.281Z,98086.88
2019-03-09T15:23:10.978Z,98081.18
2019-03-09T15:25:41.396Z,98086.43
2019-03-09T15:28:11.630Z,98092.02
2019-03-09T15:30:42.074Z,98083.48
2019-03-09T15:33:12.510Z,98078.71
2019-03-09T15:35:42.912Z,98078.16
2019-03-09T15:38:13.225Z,98074.59
2019-03-09T15:40:43.548Z,98074.59
2019-03-09T15:43:14.088Z,98072.64
2019-03-09T15:45:44.500Z,98080.66
2019-03-09T15:48:14.867Z,98083.59
2019-03-09T15:50:45.386Z,98080.44
2019-03-09T15:53:15.805Z,98072.31
2019-03-09T15:55:46.281Z,98072.17
2019-03-09T15:58:17.442Z,98072.18
2019-03-09T16:00:47.910Z,98070.05
2019-03-09T16:03:18.293Z,98072.00
2019-03-09T16:05:48.657Z,98071.58
2019-03-09T16:08:19.263Z,98066.61
2019-03-09T16:10:50.243Z,98067.41
2019-03-09T16:13:20.768Z,98065.80
2019-03-09T16:15:51.055Z,98061.78
2019-03-09T16:18:21.614Z,98065.12
2019-03-09T16:20:52.113Z,98060.95
2019-03-09T16:23:23.228Z,98050.44
2019-03-09T16:25:53.617Z,98057.97
2019-03-09T16:28:24.161Z,98056.78
2019-03-09T16:30:54.576Z,98050.95
2019-03-09T16:33:25.115Z,98045.55
2019-03-09T16:35:55.675Z,98043.71
2019-03-09T16:38:26.134Z,98046.97
2019-03-09T16:40:56.655Z,98043.19
2019-03-09T16:43:27.209Z,98049.50
2019-03-09T16:45:57.881Z,98048.16
2019-03-09T16:48:30.780Z,98046.50
2019-03-09T16:51:01.298Z,98052.66
2019-03-09T16:53:32.309Z,98048.13
2019-03-09T16:56:02.872Z,98045.88
2019-03-09T16:58:33.195Z,98053.66
2019-03-09T17:01:03.604Z,98051.77
2019-03-09T17:03:37.652Z,98053.77
2019-03-09T17:06:08.115Z,98054.34
2019-03-09T17:08:38.598Z,98066.51
2019-03-09T17:11:09.005Z,98063.85
2019-03-09T17:13:41.878Z,98069.94
2019-03-09T17:16:13.597Z,98065.75
2019-03-09T17:18:44.002Z,98065.19
2019-03-09T17:21:14.365Z,98060.74
2019-03-09T17:23:45.022Z,98064.73
2019-03-09T17:26:16.740Z,98068.91
2019-03-09T17:28:47.391Z,98076.59
2019-03-09T17:31:17.810Z,98065.66
2019-03-09T17:33:48.265Z,98063.27
2019-03-09T17:36:18.944Z,98065.76
2019-03-09T17:38:52.226Z,98067.08
2019-03-09T17:41:25.341Z,98067.64
2019-03-09T17:43:55.872Z,98064.98
2019-03-09T17:46:26.396Z,98070.30
2019-03-09T17:48:59.892Z,98070.86
2019-03-09T17:51:30.656Z,98070.19
2019-03-09T17:54:01.339Z,98070.18
2019-03-09T17:56:33.933Z,98069.91
2019-03-09T17:59:04.659Z,98074.45
2019-03-09T18:01:35.271Z,98069.91
2019-03-09T18:04:06.165Z,98066.95
2019-03-09T18:06:36.607Z,98066.02
2019-03-09T18:09:08.831Z,98065.16
2019-03-09T18:11:40.730Z,98061.83
2019-03-09T18:14:11.128Z,98053.96
2019-03-09T18:16:41.608Z,98049.88
2019-03-09T18:19:12.148Z,98053.96
2019-03-09T18:21:42.699Z,98059.18
2019-03-09T18:24:13.475Z,98049.32
2019-03-09T18:26:43.989Z,98052.74
2019-03-09T18:29:14.556Z,98050.92
2019-03-09T18:31:45.007Z,98050.09
2019-03-09T18:34:15.792Z,98050.92
2019-03-09T18:36:46.254Z,98052.26
2019-03-09T18:39:16.858Z,98050.46
2019-03-09T18:41:47.550Z,98048.83
2019-03-09T18:44:18.133Z,98056.23
2019-03-09T18:46:48.622Z,98051.89
2019-03-09T18:49:19.026Z,98055.68
2019-03-09T18:51:49.497Z,98061.55
2019-03-09T18:54:19.964Z,98061.19
2019-03-09T18:56:50.601Z,98058.06
2019-03-09T18:59:21.529Z,98065.08
2019-03-09T19:01:53.601Z,98063.74
2019-03-09T19:04:24.216Z,98063.08
2019-03-09T19:06:54.759Z,98066.95
2019-03-09T19:09:27.317Z,98068.38
2019-03-09T19:11:57.831Z,98060.77
2019-03-09T19:14:28.773Z,98064.30
2019-03-09T19:16:59.312Z,98063.44
2019-03-09T19:19:29.878Z,98065.81
2019-03-09T19:22:00.377Z,98070.77
2019-03-09T19:24:30.853Z,98075.20
2019-03-09T19:27:01.214Z,98076.23
2019-03-09T19:29:31.610Z,98073.11
2019-03-09T19:32:02.111Z,98074.07
2019-03-09T19:34:32.458Z,98067.24
2019-03-09T19:37:02.897Z,98075.40
2019-03-09T19:39:33.420Z,98081.45
2019-03-09T19:42:03.974Z,98087.92
2019-03-09T19:44:34.432Z,98088.85
2019-03-09T19:47:04.857Z,98088.09
2019-03-09T19:49:35.402Z,98089.61
2019-03-09T19:52:07.464Z,98088.56
2019-03-09T19:54:37.959Z,98094.51
2019-03-09T19:57:08.484Z,98097.33
2019-03-09T19:59:38.863Z,98099.00
2019-03-09T20:02:09.316Z,98102.98
2019-03-09T20:04:39.778Z,98105.14
2019-03-09T20:07:10.313Z,98106.78
2019-03-09T20:09:40.827Z,98100.23
2019-03-09T20:12:11.203Z,98107.33
2019-03-09T20:14:41.722Z,98101.96
2019-03-09T20:17:12.165Z,98106.03
2019-03-09T20:19:42.524Z,98105.81
2019-03-09T20:22:12.869Z,98106.77
2019-03-09T20:24:43.279Z,98109.48
2019-03-09T20:27:13.768Z,98129.12
2019-03-09T20:29:44.129Z,98136.44
2019-03-09T20:32:14.650Z,98142.88
2019-03-09T20:34:45.061Z,98144.30
2019-03-09T20:37:15.471Z,98144.54
2019-03-09T20:39:46.039Z,98142.77
2019-03-09T20:42:16.572Z,98147.23
2019-03-09T20:44:46.891Z,98152.12
2019-03-09T20:47:17.315Z,98149.47
2019-03-09T20:49:47.857Z,98147.06
2019-03-09T20:52:18.262Z,98153.97
2019-03-09T20:54:48.601Z,98147.85
2019-03-09T20:57:18.867Z,98147.93
2019-03-09T20:59:49.378Z,98153.89
2019-03-09T21:02:19.840Z,98146.83
2019-03-09T21:04:50.295Z,98152.82
2019-03-09T21:07:20.727Z,98153.14
2019-03-09T21:09:51.139Z,98151.66
2019-03-09T21:12:21.629Z,98152.20
2019-03-09T21:14:52.147Z,98153.20
2019-03-09T21:17:22.609Z,98156.05
2019-03-09T21:19:53.069Z,98146.23
2019-03-09T21:22:23.566Z,98153.57
2019-03-09T21:24:54.006Z,98148.98
2019-03-09T21:27:24.460Z,98145.48
2019-03-09T21:29:54.974Z,98147.92
2019-03-09T21:32:25.362Z,98143.63
2019-03-09T21:34:55.831Z,98145.91
2019-03-09T21:37:27.015Z,98154.47
2019-03-09T21:39:57.706Z,98145.58
2019-03-09T21:42:28.053Z,98145.29
2019-03-09T21:44:58.529Z,98148.94
2019-03-09T21:47:28.988Z,98145.95
2019-03-09T21:49:59.422Z,98146.61
2019-03-09T21:52:29.917Z,98143.02
2019-03-09T21:55:00.336Z,98148.77
2019-03-09T21:57:30.712Z,98148.69
2019-03-09T22:00:01.292Z,98142.69
2019-03-09T22:02:31.764Z,98136.48
2019-03-09T22:05:02.074Z,98136.69
2019-03-09T22:07:32.470Z,98140.36
2019-03-09T22:10:02.964Z,98137.80
2019-03-09T22:12:33.452Z,98139.00
2019-03-09T22:15:03.879Z,98139.45
2019-03-09T22:17:34.370Z,98133.79
2019-03-09T22:20:05.136Z,98135.31
2019-03-09T22:22:35.584Z,98132.22
2019-03-09T22:25:06.394Z,98128.63
2019-03-09T22:27:36.588Z,98130.44
2019-03-09T22:30:08.262Z,98130.36
2019-03-09T22:32:38.797Z,98132.22
2019-03-09T22:35:11.630Z,98137.50
2019-03-09T22:37:41.946Z,98135.89
2019-03-09T22:40:12.798Z,98130.11
2019-03-09T22:42:43.162Z,98126.58
2019-03-09T22:45:13.537Z,98122.48
2019-03-09T22:47:44.151Z,98123.31
2019-03-09T22:50:15.421Z,98125.48
2019-03-09T22:52:45.983Z,98121.28
2019-03-09T22:55:16.235Z,98121.06
2019-03-09T22:57:46.708Z,98116.54
2019-03-09T23:00:19.040Z,98118.30
2019-03-09T23:02:49.633Z,98124.70
2019-03-09T23:05:20.232Z,98122.07
2019-03-09T23:07:50.689Z,98121.20
2019-03-09T23:10:21.201Z,98124.97
2019-03-09T23:12:51.711Z,98121.19
2019-03-09T23:15:22.234Z,98123.77
2019-03-09T23:17:52.903Z,98115.26
2019-03-09T23:20:23.359Z,98131.75
2019-03-09T23:22:53.746Z,98132.22
2019-03-09T23:25:24.716Z,98130.88
2019-03-09T23:27:55.108Z,98130.52
2019-03-09T23:30:25.615Z,98132.23
2019-03-09T23:32:55.962Z,98140.45
2019-03-09T23:35:26.495Z,98147.25
2019-03-09T23:37:56.995Z,98143.36
2019-03-09T23:40:27.482Z,98144.23
2019-03-09T23:42:57.813Z,98149.80
2019-03-09T23:45:28.652Z,98150.19
2019-03-09T23:47:59.479Z,98144.34
2019-03-09T23:50:29.842Z,98145.92
2019-03-09T23:53:00.289Z,98150.95
2019-03-09T23:55:33.022Z,98152.80
2019-03-09T23:58:03.421Z,98151.77
